Time;durP1;ratioP1;P1;durP2;ratioP2;P2;SDS_P1;SDS_P2;PMS_P1;PMS_P2;Temp;Humidity;BMP_temperature;BMP_pressure;BME280_temperature;BME280_humidity;BME280_pressure;Samples;Min_cycle;Max_cycle;Signal;HPM_P1;HPM_P2
2023/06/22 00:00:51;;;;;;;4.80;4.15;;;;;;;;;;4955564;29;20230;-79
2023/06/22 00:03:19;;;;;;;6.07;4.50;;;;;;;;;;4955128;29;20282;-82
2023/06/22 00:05:46;;;;;;;6.03;4.32;;;;;;;;;;4955654;29;20703;-82
2023/06/22 00:08:14;;;;;;;5.90;4.35;;;;;;;;;;4954653;28;20214;-82
2023/06/22 00:10:41;;;;;;;5.95;4.25;;;;;;;;;;4954898;29;20224;-81
2023/06/22 00:13:09;;;;;;;5.70;4.20;;;;;;;;;;4955412;29;20286;-82
2023/06/22 00:15:37;;;;;;;5.70;4.70;;;;;;;;;;4954734;28;20310;-82
2023/06/22 00:18:05;;;;;;;7.43;4.85;;;;;;;;;;4954885;29;20242;-82
2023/06/22 00:20:36;;;;;;;9.00;4.72;;;;;;;;;;4955531;29;20226;-82
2023/06/22 00:23:06;;;;;;;7.50;4.70;;;;;;;;;;4962014;28;20547;-81
2023/06/22 00:25:33;;;;;;;6.20;4.80;;;;;;;;;;4974136;28;20202;-82
2023/06/22 00:28:01;;;;;;;6.68;4.60;;;;;;;;;;4974166;28;20203;-82
2023/06/22 00:30:28;;;;;;;5.60;4.68;;;;;;;;;;4974412;28;20234;-82
2023/06/22 00:32:56;;;;;;;7.22;4.45;;;;;;;;;;4974071;28;20233;-82
2023/06/22 00:35:28;;;;;;;6.82;5.32;;;;;;;;;;4974244;28;20289;-81
2023/06/22 00:38:00;;;;;;;5.10;4.60;;;;;;;;;;4973944;28;20200;-81
2023/06/22 00:40:28;;;;;;;6.25;4.85;;;;;;;;;;4974145;28;20229;-82
2023/06/22 00:42:56;;;;;;;6.50;4.40;;;;;;;;;;4973832;28;20206;-81
2023/06/22 00:45:23;;;;;;;5.65;4.82;;;;;;;;;;4974070;28;20199;-82
2023/06/22 00:47:51;;;;;;;5.93;4.40;;;;;;;;;;4974006;28;20198;-82
2023/06/22 00:50:20;;;;;;;7.30;4.82;;;;;;;;;;4974041;28;20202;-82
2023/06/22 00:52:49;;;;;;;6.05;4.40;;;;;;;;;;4972729;28;20346;-81
2023/06/22 00:55:17;;;;;;;6.90;5.15;;;;;;;;;;4973881;28;20621;-82
2023/06/22 00:57:45;;;;;;;5.90;4.63;;;;;;;;;;4962461;28;20230;-82
2023/06/22 01:00:18;;;;;;;8.75;5.35;;;;;;;;;;4954477;28;20206;-82
2023/06/22 01:02:46;;;;;;;6.65;4.85;;;;;;;;;;4954983;28;20209;-81
2023/06/22 01:05:14;;;;;;;6.50;5.00;;;;;;;;;;4953824;29;20195;-82
2023/06/22 01:07:43;;;;;;;6.68;5.00;;;;;;;;;;4953505;28;20214;-81
2023/06/22 01:10:16;;;;;;;5.85;5.00;;;;;;;;;;4954294;29;20298;-82
2023/06/22 01:12:46;;;;;;;8.57;4.97;;;;;;;;;;4954239;29;20286;-81
2023/06/22 01:15:16;;;;;;;6.57;4.93;;;;;;;;;;4948558;28;20203;-83
2023/06/22 01:17:45;;;;;;;6.20;5.55;;;;;;;;;;4943150;29;20334;-81
2023/06/22 01:20:14;;;;;;;7.25;4.93;;;;;;;;;;4935231;29;20207;-81
2023/06/22 01:22:47;;;;;;;7.53;4.97;;;;;;;;;;4934695;29;20203;-81
2023/06/22 01:25:21;;;;;;;6.82;5.30;;;;;;;;;;4935239;29;20295;-81
2023/06/22 01:27:50;;;;;;;6.03;5.43;;;;;;;;;;4934888;29;20635;-81
2023/06/22 01:30:20;;;;;;;5.38;4.88;;;;;;;;;;4934668;29;20204;-82
2023/06/22 01:32:48;;;;;;;5.53;4.93;;;;;;;;;;4934643;29;20207;-82
2023/06/22 01:35:16;;;;;;;9.00;5.68;;;;;;;;;;4934222;29;20291;-82
2023/06/22 01:37:44;;;;;;;6.80;5.25;;;;;;;;;;4934509;29;20258;-81
2023/06/22 01:40:11;;;;;;;6.68;5.40;;;;;;;;;;4934617;29;20652;-82
2023/06/22 01:42:39;;;;;;;5.72;5.10;;;;;;;;;;4934294;29;20208;-82
2023/06/22 01:45:08;;;;;;;5.93;5.32;;;;;;;;;;4934144;29;20220;-80
2023/06/22 01:47:37;;;;;;;8.48;5.90;;;;;;;;;;4934519;29;20207;-82
2023/06/22 01:50:05;;;;;;;8.50;5.72;;;;;;;;;;4934051;29;20725;-81
2023/06/22 01:52:33;;;;;;;7.68;6.20;;;;;;;;;;4934527;29;20236;-81
2023/06/22 01:55:00;;;;;;;6.65;5.68;;;;;;;;;;4934001;29;20294;-82
2023/06/22 01:57:28;;;;;;;6.55;5.47;;;;;;;;;;4934073;29;20258;-80
2023/06/22 02:00:00;;;;;;;6.75;5.53;;;;;;;;;;4934672;29;20203;-82
2023/06/22 02:02:33;;;;;;;6.50;5.55;;;;;;;;;;4933916;29;20291;-82
2023/06/22 02:05:04;;;;;;;7.07;5.60;;;;;;;;;;4933629;29;20223;-80
2023/06/22 02:07:34;;;;;;;8.25;5.78;;;;;;;;;;4934068;29;20752;-81
2023/06/22 02:10:03;;;;;;;6.97;5.65;;;;;;;;;;4933805;29;20306;-81
2023/06/22 02:12:31;;;;;;;7.97;5.57;;;;;;;;;;4933955;29;20674;-82
2023/06/22 02:15:00;;;;;;;7.38;6.13;;;;;;;;;;4939586;29;20203;-81
2023/06/22 02:17:27;;;;;;;8.20;5.90;;;;;;;;;;4952965;29;20289;-81
2023/06/22 02:19:55;;;;;;;7.68;6.55;;;;;;;;;;4952886;29;20202;-82
2023/06/22 02:22:23;;;;;;;6.60;5.90;;;;;;;;;;4953127;28;20680;-81
2023/06/22 02:24:51;;;;;;;7.30;6.20;;;;;;;;;;4952991;29;20557;-82
2023/06/22 02:27:18;;;;;;;7.35;6.10;;;;;;;;;;4953515;28;20291;-81
2023/06/22 02:29:45;;;;;;;8.52;6.13;;;;;;;;;;4953332;28;20207;-82
2023/06/22 02:32:12;;;;;;;6.60;6.00;;;;;;;;;;4953129;29;20290;-82
2023/06/22 02:34:39;;;;;;;7.22;6.00;;;;;;;;;;4952792;29;20226;-82
2023/06/22 02:37:06;;;;;;;8.43;6.30;;;;;;;;;;4952914;29;20329;-81
2023/06/22 02:39:35;;;;;;;7.60;5.95;;;;;;;;;;4953070;29;20715;-81
2023/06/22 02:42:02;;;;;;;6.97;6.07;;;;;;;;;;4953106;28;20235;-82
2023/06/22 02:44:29;;;;;;;6.80;6.13;;;;;;;;;;4953473;29;20203;-82
2023/06/22 02:46:57;;;;;;;8.85;6.40;;;;;;;;;;4953101;29;20290;-82
2023/06/22 02:49:24;;;;;;;8.00;6.18;;;;;;;;;;4952793;29;20290;-82
2023/06/22 02:51:52;;;;;;;8.93;6.75;;;;;;;;;;4953183;29;20399;-82
2023/06/22 02:54:19;;;;;;;9.23;6.43;;;;;;;;;;4952059;29;20203;-82
2023/06/22 02:56:48;;;;;;;7.60;6.10;;;;;;;;;;4952852;28;20237;-83
2023/06/22 02:59:15;;;;;;;8.80;6.50;;;;;;;;;;4952908;29;20736;-81
2023/06/22 03:01:42;;;;;;;8.25;6.25;;;;;;;;;;4952507;29;20201;-82
2023/06/22 03:04:09;;;;;;;7.03;5.80;;;;;;;;;;4952652;29;20732;-81
2023/06/22 03:06:37;;;;;;;7.78;5.88;;;;;;;;;;4952637;29;20222;-82
2023/06/22 03:09:04;;;;;;;7.25;6.20;;;;;;;;;;4952518;29;20290;-82
2023/06/22 03:11:32;;;;;;;6.78;5.88;;;;;;;;;;4952743;28;20234;-81
2023/06/22 03:14:00;;;;;;;7.95;6.43;;;;;;;;;;4952819;28;20293;-82
2023/06/22 03:16:28;;;;;;;7.30;6.22;;;;;;;;;;4956031;29;20238;-82
2023/06/22 03:18:55;;;;;;;6.97;6.15;;;;;;;;;;4956129;29;20203;-82
2023/06/22 03:21:24;;;;;;;8.75;6.40;;;;;;;;;;4956625;29;20286;-79
2023/06/22 03:23:51;;;;;;;9.68;6.13;;;;;;;;;;4955844;29;20294;-82
2023/06/22 03:26:18;;;;;;;9.30;6.50;;;;;;;;;;4956305;29;20200;-82
2023/06/22 03:28:45;;;;;;;8.25;6.00;;;;;;;;;;4956159;28;20649;-82
2023/06/22 03:31:14;;;;;;;8.40;6.50;;;;;;;;;;4955433;29;20199;-81
2023/06/22 03:33:41;;;;;;;8.30;6.07;;;;;;;;;;4955976;28;20732;-81
2023/06/22 03:36:09;;;;;;;7.17;6.43;;;;;;;;;;4955858;28;20290;-81
2023/06/22 03:38:36;;;;;;;8.33;6.10;;;;;;;;;;4956495;28;20241;-82
2023/06/22 03:41:03;;;;;;;10.47;6.53;;;;;;;;;;4975806;28;20218;-82
2023/06/22 03:43:30;;;;;;;8.17;6.30;;;;;;;;;;4974232;28;20293;-81
2023/06/22 03:45:58;;;;;;;7.93;6.53;;;;;;;;;;4974915;28;20202;-81
2023/06/22 03:48:26;;;;;;;8.53;6.50;;;;;;;;;;4974902;28;20226;-81
2023/06/22 03:50:53;;;;;;;11.93;6.67;;;;;;;;;;4975094;28;20203;-81
2023/06/22 03:53:20;;;;;;;7.73;6.77;;;;;;;;;;4974849;28;20208;-81
2023/06/22 03:55:51;;;;;;;8.63;6.57;;;;;;;;;;4974783;28;20289;-82
2023/06/22 03:58:18;;;;;;;7.67;6.87;;;;;;;;;;4974958;28;20330;-82
2023/06/22 04:00:47;;;;;;;9.30;6.90;;;;;;;;;;4974493;28;20294;-81
2023/06/22 04:03:14;;;;;;;8.27;6.43;;;;;;;;;;4974858;28;20199;-81
2023/06/22 04:05:42;;;;;;;8.47;6.70;;;;;;;;;;4974521;28;20205;-82
2023/06/22 04:08:10;;;;;;;9.00;6.27;;;;;;;;;;4974480;28;20626;-81
2023/06/22 04:10:37;;;;;;;9.73;6.57;;;;;;;;;;4974641;28;20293;-81
2023/06/22 04:13:04;;;;;;;9.20;6.67;;;;;;;;;;4975089;28;20565;-81
2023/06/22 04:15:31;;;;;;;8.23;6.23;;;;;;;;;;4964314;28;20286;-82
2023/06/22 04:17:58;;;;;;;6.90;6.20;;;;;;;;;;4954845;29;20338;-81
2023/06/22 04:20:26;;;;;;;9.40;6.00;;;;;;;;;;4955182;28;20318;-81
2023/06/22 04:22:55;;;;;;;10.47;6.67;;;;;;;;;;4963207;28;20210;-81
2023/06/22 04:25:22;;;;;;;7.63;5.93;;;;;;;;;;4974302;28;20297;-81
2023/06/22 04:27:50;;;;;;;9.07;5.90;;;;;;;;;;4974197;28;20222;-81
2023/06/22 04:30:18;;;;;;;10.23;6.00;;;;;;;;;;4974312;28;20198;-81
2023/06/22 04:32:45;;;;;;;7.73;6.07;;;;;;;;;;4974363;28;20209;-81
2023/06/22 04:35:13;;;;;;;8.03;6.30;;;;;;;;;;4974105;28;20297;-80
2023/06/22 04:37:40;;;;;;;7.23;5.73;;;;;;;;;;4973916;28;20241;-81
2023/06/22 04:40:09;;;;;;;6.43;5.40;;;;;;;;;;4974012;28;20282;-82
2023/06/22 04:42:37;;;;;;;7.15;5.72;;;;;;;;;;4973863;28;20194;-80
2023/06/22 04:45:04;;;;;;;7.40;5.70;;;;;;;;;;4973782;28;20199;-82
2023/06/22 04:47:31;;;;;;;7.33;5.97;;;;;;;;;;4973708;28;20233;-81
2023/06/22 04:49:59;;;;;;;7.50;5.80;;;;;;;;;;4974164;28;20214;-81
2023/06/22 04:52:26;;;;;;;8.07;5.38;;;;;;;;;;4973918;28;20198;-81
2023/06/22 04:54:55;;;;;;;8.43;5.80;;;;;;;;;;4973444;28;20198;-81
2023/06/22 04:57:30;;;;;;;6.40;5.57;;;;;;;;;;4974055;28;20219;-81
2023/06/22 04:59:57;;;;;;;6.50;5.07;;;;;;;;;;4973503;28;20253;-80
2023/06/22 05:02:27;;;;;;;6.63;5.53;;;;;;;;;;4973862;28;20297;-81
2023/06/22 05:04:56;;;;;;;7.17;5.30;;;;;;;;;;4973480;28;20205;-80
2023/06/22 05:07:25;;;;;;;6.78;5.10;;;;;;;;;;4973663;28;20194;-82
2023/06/22 05:09:52;;;;;;;7.63;5.15;;;;;;;;;;4973434;28;20201;-81
2023/06/22 05:12:19;;;;;;;7.18;5.93;;;;;;;;;;4973281;28;20258;-80
2023/06/22 05:14:48;;;;;;;9.77;5.67;;;;;;;;;;4969657;28;20210;-79
2023/06/22 05:17:18;;;;;;;8.30;5.55;;;;;;;;;;4953980;29;20657;-79
2023/06/22 05:19:48;;;;;;;6.43;5.03;;;;;;;;;;4954001;29;20904;-80
2023/06/22 05:22:15;;;;;;;6.07;5.18;;;;;;;;;;4954307;28;20282;-80
2023/06/22 05:24:42;;;;;;;6.97;4.80;;;;;;;;;;4954282;29;20234;-79
2023/06/22 05:27:10;;;;;;;10.30;5.43;;;;;;;;;;4953620;29;20278;-80
2023/06/22 05:29:37;;;;;;;6.87;5.53;;;;;;;;;;4953864;29;20195;-80
2023/06/22 05:32:06;;;;;;;6.75;4.93;;;;;;;;;;4953785;28;20736;-79
2023/06/22 05:34:33;;;;;;;7.35;5.00;;;;;;;;;;4954051;29;20195;-81
2023/06/22 05:37:00;;;;;;;8.07;4.88;;;;;;;;;;4953378;28;20290;-80
2023/06/22 05:39:28;;;;;;;6.65;5.45;;;;;;;;;;4955768;28;20293;-81
2023/06/22 05:41:55;;;;;;;6.68;4.88;;;;;;;;;;4972471;28;20282;-79
2023/06/22 05:44:22;;;;;;;7.20;4.70;;;;;;;;;;4972943;28;20293;-81
2023/06/22 05:46:49;;;;;;;6.90;4.80;;;;;;;;;;4972397;28;20290;-82
2023/06/22 05:49:18;;;;;;;7.57;4.88;;;;;;;;;;4973152;28;20207;-82
2023/06/22 05:51:45;;;;;;;6.75;4.97;;;;;;;;;;4972685;28;20672;-82
2023/06/22 05:54:13;;;;;;;6.80;5.03;;;;;;;;;;4952288;28;20211;-81
2023/06/22 05:56:40;;;;;;;6.10;4.63;;;;;;;;;;4934248;29;20188;-83
2023/06/22 05:59:07;;;;;;;9.60;5.03;;;;;;;;;;4934648;29;20330;-81
2023/06/22 06:01:35;;;;;;;6.18;4.90;;;;;;;;;;4951247;28;20190;-87
2023/06/22 06:04:03;;;;;;;6.68;4.85;;;;;;;;;;4974612;28;20261;-88
2023/06/22 06:06:36;;;;;;;5.75;4.50;;;;;;;;;;4974797;28;20233;-87
2023/06/22 06:09:04;;;;;;;6.60;4.60;;;;;;;;;;4974964;28;20252;-88
2023/06/22 06:11:31;;;;;;;4.90;4.18;;;;;;;;;;4974623;28;20226;-87
2023/06/22 06:13:58;;;;;;;6.57;4.32;;;;;;;;;;4974735;28;20230;-88
2023/06/22 06:16:25;;;;;;;5.55;4.38;;;;;;;;;;4957580;28;20672;-88
2023/06/22 06:18:54;;;;;;;5.30;4.28;;;;;;;;;;4955306;29;20778;-88
2023/06/22 06:21:21;;;;;;;6.25;4.28;;;;;;;;;;4954987;29;20649;-88
2023/06/22 06:23:50;;;;;;;6.40;5.00;;;;;;;;;;4954994;29;20192;-88
2023/06/22 06:26:17;;;;;;;6.97;4.35;;;;;;;;;;4954895;28;20282;-89
2023/06/22 06:28:44;;;;;;;6.57;4.50;;;;;;;;;;4955485;29;20620;-89
2023/06/22 06:31:16;;;;;;;5.60;4.18;;;;;;;;;;4955335;29;20226;-89
2023/06/22 06:33:44;;;;;;;5.10;4.13;;;;;;;;;;4955513;28;20195;-89
2023/06/22 06:36:11;;;;;;;4.43;3.88;;;;;;;;;;4955127;29;20290;-88
2023/06/22 06:38:38;;;;;;;4.28;3.70;;;;;;;;;;4955096;29;20325;-87
2023/06/22 06:41:06;;;;;;;4.28;3.88;;;;;;;;;;4953471;28;20266;-85
2023/06/22 06:43:34;;;;;;;5.65;4.18;;;;;;;;;;4953763;28;20282;-86
2023/06/22 06:46:03;;;;;;;6.68;3.88;;;;;;;;;;4954001;28;20311;-86
2023/06/22 06:48:30;;;;;;;5.50;3.72;;;;;;;;;;4954089;28;20351;-86
2023/06/22 06:50:57;;;;;;;5.20;3.80;;;;;;;;;;4957627;29;20226;-88
2023/06/22 06:53:24;;;;;;;4.95;3.80;;;;;;;;;;4958816;28;20290;-90
2023/06/22 06:55:51;;;;;;;5.05;3.55;;;;;;;;;;4959087;29;20235;-90
2023/06/22 06:58:20;;;;;;;4.47;3.70;;;;;;;;;;4959131;28;20329;-87
2023/06/22 07:00:47;;;;;;;5.70;3.55;;;;;;;;;;4958448;28;20238;-87
2023/06/22 07:03:14;;;;;;;5.05;3.60;;;;;;;;;;4957299;29;20230;-85
2023/06/22 07:05:41;;;;;;;6.00;3.83;;;;;;;;;;4956576;29;20284;-85
2023/06/22 07:08:08;;;;;;;5.53;3.47;;;;;;;;;;4957603;29;20203;-85
2023/06/22 07:10:36;;;;;;;4.18;3.70;;;;;;;;;;4957103;29;20282;-87
2023/06/22 07:13:03;;;;;;;3.83;3.40;;;;;;;;;;4957809;29;20294;-87
2023/06/22 07:15:31;;;;;;;3.67;3.33;;;;;;;;;;4957444;29;20238;-87
2023/06/22 07:17:58;;;;;;;3.70;3.17;;;;;;;;;;4957656;28;20338;-87
2023/06/22 07:20:26;;;;;;;5.07;3.30;;;;;;;;;;4958039;28;20199;-87
2023/06/22 07:22:54;;;;;;;5.65;3.13;;;;;;;;;;4958165;28;20223;-87
2023/06/22 07:25:21;;;;;;;3.60;3.05;;;;;;;;;;4958185;28;20203;-88
2023/06/22 07:27:58;;;;;;;5.70;3.53;;;;;;;;;;4957896;28;20290;-88
2023/06/22 07:30:25;;;;;;;5.13;3.17;;;;;;;;;;4957669;28;20869;-87
2023/06/22 07:32:53;;;;;;;4.50;3.22;;;;;;;;;;4957808;28;20223;-87
2023/06/22 07:35:21;;;;;;;5.82;3.50;;;;;;;;;;4957382;28;20195;-88
2023/06/22 07:37:48;;;;;;;4.97;3.40;;;;;;;;;;4957333;28;20246;-88
2023/06/22 07:40:15;;;;;;;4.30;2.90;;;;;;;;;;4958005;28;20293;-87
2023/06/22 07:42:42;;;;;;;3.33;2.95;;;;;;;;;;4956932;28;20776;-84
2023/06/22 07:45:10;;;;;;;6.15;3.03;;;;;;;;;;4955934;28;20195;-84
2023/06/22 07:47:37;;;;;;;6.15;3.10;;;;;;;;;;4956258;28;20746;-84
2023/06/22 07:50:06;;;;;;;6.55;3.03;;;;;;;;;;4956304;28;20227;-83
2023/06/22 07:52:33;;;;;;;5.68;2.83;;;;;;;;;;4955365;28;20253;-84
2023/06/22 07:55:02;;;;;;;5.40;2.83;;;;;;;;;;4955962;28;20206;-83
2023/06/22 07:57:33;;;;;;;3.28;2.90;;;;;;;;;;4956113;28;20235;-84
2023/06/22 08:00:00;;;;;;;4.30;2.88;;;;;;;;;;4955706;28;20231;-84
2023/06/22 08:02:27;;;;;;;6.65;3.10;;;;;;;;;;4955045;28;20282;-83
2023/06/22 08:04:55;;;;;;;4.13;3.55;;;;;;;;;;4956093;28;20207;-84
2023/06/22 08:07:23;;;;;;;3.92;2.90;;;;;;;;;;4955156;28;20238;-83
2023/06/22 08:09:50;;;;;;;5.15;3.05;;;;;;;;;;4956177;28;20304;-83
2023/06/22 08:12:18;;;;;;;3.45;3.08;;;;;;;;;;4955538;28;20315;-84
2023/06/22 08:14:45;;;;;;;3.35;2.85;;;;;;;;;;4955604;28;20234;-83
2023/06/22 08:17:13;;;;;;;3.30;3.00;;;;;;;;;;4955990;28;20238;-84
2023/06/22 08:19:41;;;;;;;3.60;3.17;;;;;;;;;;4955712;29;20321;-84
2023/06/22 08:22:09;;;;;;;4.10;2.97;;;;;;;;;;4955106;29;20203;-84
2023/06/22 08:24:37;;;;;;;6.88;3.20;;;;;;;;;;4955790;28;20289;-84
2023/06/22 08:27:05;;;;;;;3.58;2.65;;;;;;;;;;4955623;28;20286;-85
2023/06/22 08:29:32;;;;;;;3.92;2.97;;;;;;;;;;4955579;29;20589;-87
2023/06/22 08:32:00;;;;;;;3.47;2.70;;;;;;;;;;4955839;29;20282;-84
2023/06/22 08:34:27;;;;;;;3.75;2.70;;;;;;;;;;4955515;28;20199;-84
2023/06/22 08:36:55;;;;;;;4.47;2.90;;;;;;;;;;4954856;29;20688;-85
2023/06/22 08:39:22;;;;;;;5.72;2.60;;;;;;;;;;4955218;29;20265;-84
2023/06/22 08:41:50;;;;;;;5.20;2.35;;;;;;;;;;4955124;28;20246;-84
2023/06/22 08:44:20;;;;;;;3.10;2.72;;;;;;;;;;4955177;29;20279;-84
2023/06/22 08:46:47;;;;;;;3.35;2.80;;;;;;;;;;4955533;29;20198;-84
2023/06/22 08:49:14;;;;;;;3.20;2.90;;;;;;;;;;4955513;28;20289;-87
2023/06/22 08:51:42;;;;;;;4.85;2.83;;;;;;;;;;4955604;29;20282;-86
2023/06/22 08:54:09;;;;;;;3.70;3.30;;;;;;;;;;4955798;29;20298;-87
2023/06/22 08:56:36;;;;;;;4.03;2.60;;;;;;;;;;4955798;29;20231;-87
2023/06/22 08:59:07;;;;;;;3.50;3.00;;;;;;;;;;4955917;29;20321;-87
2023/06/22 09:01:34;;;;;;;3.33;2.65;;;;;;;;;;4955981;28;20657;-87
2023/06/22 09:04:01;;;;;;;4.13;3.28;;;;;;;;;;4955705;29;20227;-86
2023/06/22 09:06:31;;;;;;;4.20;2.92;;;;;;;;;;4955360;29;20282;-86
2023/06/22 09:08:59;;;;;;;3.72;2.90;;;;;;;;;;4955311;29;20630;-87
2023/06/22 09:11:26;;;;;;;5.30;3.03;;;;;;;;;;4955148;29;20258;-87
2023/06/22 09:13:53;;;;;;;5.22;2.90;;;;;;;;;;4954963;29;20237;-88
2023/06/22 09:16:22;;;;;;;4.32;3.00;;;;;;;;;;4954967;29;20207;-87
2023/06/22 09:18:49;;;;;;;4.13;2.72;;;;;;;;;;4954651;28;20227;-87
2023/06/22 09:21:17;;;;;;;5.18;2.88;;;;;;;;;;4952999;29;20202;-86
2023/06/22 09:23:46;;;;;;;4.25;3.20;;;;;;;;;;4954453;28;20242;-87
2023/06/22 09:26:14;;;;;;;4.03;2.50;;;;;;;;;;4955279;28;20234;-88
2023/06/22 09:28:41;;;;;;;3.20;2.90;;;;;;;;;;4955188;29;20258;-88
2023/06/22 09:31:08;;;;;;;3.30;2.58;;;;;;;;;;4954841;29;20618;-87
2023/06/22 09:33:37;;;;;;;3.65;2.42;;;;;;;;;;4955043;29;20286;-87
2023/06/22 09:36:07;;;;;;;3.70;3.00;;;;;;;;;;4955048;29;20195;-88
2023/06/22 09:38:36;;;;;;;2.75;2.50;;;;;;;;;;4955216;29;20230;-87
2023/06/22 09:41:03;;;;;;;4.40;3.10;;;;;;;;;;4968748;28;20652;-87
2023/06/22 09:43:31;;;;;;;3.67;2.85;;;;;;;;;;4972509;28;20226;-86
2023/06/22 09:45:59;;;;;;;3.38;2.80;;;;;;;;;;4954338;29;20230;-87
2023/06/22 09:48:26;;;;;;;2.70;2.50;;;;;;;;;;4954371;28;20210;-86
2023/06/22 09:50:54;;;;;;;3.47;2.65;;;;;;;;;;4954391;28;20301;-88
2023/06/22 09:53:21;;;;;;;3.00;2.78;;;;;;;;;;4951774;29;20749;-85
2023/06/22 09:55:49;;;;;;;4.07;2.80;;;;;;;;;;4954305;29;20255;-86
2023/06/22 09:58:16;;;;;;;3.55;2.60;;;;;;;;;;4954532;29;20226;-86
2023/06/22 10:00:43;;;;;;;4.80;2.88;;;;;;;;;;4951720;29;20231;-86
2023/06/22 10:03:10;;;;;;;2.83;2.58;;;;;;;;;;4952688;28;20226;-87
2023/06/22 10:05:37;;;;;;;5.15;2.92;;;;;;;;;;4951274;28;20295;-87
2023/06/22 10:08:07;;;;;;;3.60;2.95;;;;;;;;;;4956237;28;20675;-85
2023/06/22 10:10:34;;;;;;;3.03;2.40;;;;;;;;;;4948061;28;20210;-86
2023/06/22 10:13:04;;;;;;;2.75;2.50;;;;;;;;;;4961224;28;20826;-86
2023/06/22 10:15:31;;;;;;;2.75;2.55;;;;;;;;;;4963985;28;20291;-85
2023/06/22 10:17:59;;;;;;;3.22;2.88;;;;;;;;;;4968209;28;20322;-85
2023/06/22 10:20:26;;;;;;;4.30;2.70;;;;;;;;;;4956715;28;20241;-85
2023/06/22 10:22:53;;;;;;;4.35;2.70;;;;;;;;;;4972254;28;20202;-85
2023/06/22 10:25:22;;;;;;;3.00;2.67;;;;;;;;;;4942346;29;20293;-87
2023/06/22 10:27:49;;;;;;;2.85;2.60;;;;;;;;;;4957291;29;20195;-94
2023/06/22 10:30:16;;;;;;;3.00;2.55;;;;;;;;;;4960658;29;20275;-93
2023/06/22 10:32:44;;;;;;;3.50;2.80;;;;;;;;;;4955814;28;20695;-94
2023/06/22 10:35:13;;;;;;;3.90;3.03;;;;;;;;;;4947916;28;20238;-88
2023/06/22 10:37:42;;;;;;;3.75;2.60;;;;;;;;;;4943975;28;20199;-93
2023/06/22 10:40:10;;;;;;;3.42;2.70;;;;;;;;;;4963573;28;20231;-91
2023/06/22 10:42:39;;;;;;;5.07;3.83;;;;;;;;;;4945104;29;20258;-93
2023/06/22 10:45:06;;;;;;;4.40;2.70;;;;;;;;;;4950517;28;20890;-91
2023/06/22 10:47:33;;;;;;;3.47;2.50;;;;;;;;;;4944622;28;20274;-91
2023/06/22 10:50:01;;;;;;;4.32;2.88;;;;;;;;;;4603515;28;9999922;-93
2023/06/22 10:52:28;;;;;;;3.67;2.70;;;;;;;;;;4945084;28;20210;-93
2023/06/22 10:54:56;;;;;;;3.00;2.70;;;;;;;;;;4947981;28;20258;-92
2023/06/22 10:57:23;;;;;;;5.22;2.80;;;;;;;;;;4944603;29;20286;-88
2023/06/22 10:59:52;;;;;;;5.90;3.08;;;;;;;;;;4941619;29;20307;-90
2023/06/22 11:02:19;;;;;;;4.43;2.80;;;;;;;;;;4946128;29;20294;-89
2023/06/22 11:04:47;;;;;;;3.90;3.10;;;;;;;;;;4943251;28;20239;-92
2023/06/22 11:07:14;;;;;;;3.88;2.83;;;;;;;;;;4950625;29;20203;-90
2023/06/22 11:09:42;;;;;;;4.53;3.20;;;;;;;;;;4946853;28;20192;-88
2023/06/22 11:12:09;;;;;;;3.85;2.90;;;;;;;;;;4942731;29;20242;-92
2023/06/22 11:14:36;;;;;;;3.67;2.80;;;;;;;;;;4941349;28;20298;-93
2023/06/22 11:17:05;;;;;;;3.03;2.72;;;;;;;;;;4950167;29;20220;-94
2023/06/22 11:19:32;;;;;;;4.28;2.70;;;;;;;;;;4948265;28;20235;-94
2023/06/22 11:21:59;;;;;;;5.70;2.90;;;;;;;;;;4943677;29;20223;-95
2023/06/22 11:24:27;;;;;;;3.17;2.60;;;;;;;;;;4966889;28;20217;-95
2023/06/22 11:26:54;;;;;;;4.15;2.55;;;;;;;;;;4982503;28;20203;-95
2023/06/22 11:29:21;;;;;;;3.40;2.78;;;;;;;;;;4984272;28;20297;-94
2023/06/22 11:31:48;;;;;;;5.32;2.80;;;;;;;;;;4969502;28;20283;-94
2023/06/22 11:34:17;;;;;;;2.95;2.65;;;;;;;;;;4957630;28;20196;-94
2023/06/22 11:36:45;;;;;;;5.03;2.92;;;;;;;;;;4961545;28;20207;-96
2023/06/22 11:39:14;;;;;;;4.10;2.70;;;;;;;;;;4960338;28;20242;-96
2023/06/22 11:41:42;;;;;;;3.63;2.80;;;;;;;;;;4955617;28;20192;-95
2023/06/22 11:44:09;;;;;;;4.13;2.88;;;;;;;;;;4941307;29;20192;-96
2023/06/22 11:46:36;;;;;;;3.60;2.75;;;;;;;;;;4986877;28;20195;-96
2023/06/22 11:49:04;;;;;;;4.68;2.90;;;;;;;;;;4970864;28;20242;-96
2023/06/22 11:51:32;;;;;;;3.97;2.72;;;;;;;;;;4970827;28;20210;-95
2023/06/22 11:53:59;;;;;;;3.03;2.60;;;;;;;;;;4987903;28;20218;-96
2023/06/22 11:56:27;;;;;;;3.30;3.00;;;;;;;;;;4975179;28;20282;-96
2023/06/22 11:58:55;;;;;;;5.25;2.97;;;;;;;;;;4968413;28;20199;-96
2023/06/22 12:01:22;;;;;;;3.60;2.60;;;;;;;;;;4967836;28;20242;-95
2023/06/22 12:03:49;;;;;;;3.60;3.22;;;;;;;;;;4964409;28;20605;-96
2023/06/22 12:06:16;;;;;;;3.28;2.92;;;;;;;;;;4972204;28;20226;-95
2023/06/22 12:08:45;;;;;;;5.38;3.15;;;;;;;;;;4980124;28;20503;-94
2023/06/22 12:11:12;;;;;;;3.55;2.83;;;;;;;;;;4962456;28;20285;-94
2023/06/22 12:13:39;;;;;;;4.97;2.97;;;;;;;;;;4961958;28;20223;-95
2023/06/22 12:16:06;;;;;;;3.53;3.15;;;;;;;;;;4964992;28;20261;-93
2023/06/22 12:18:34;;;;;;;5.07;3.58;;;;;;;;;;4959105;29;20263;-96
2023/06/22 12:21:01;;;;;;;4.55;3.15;;;;;;;;;;4980149;28;20222;-96
2023/06/22 12:23:28;;;;;;;3.88;3.35;;;;;;;;;;4979900;28;20214;-95
2023/06/22 12:25:57;;;;;;;7.47;3.20;;;;;;;;;;4964175;28;20278;-95
2023/06/22 12:28:25;;;;;;;6.15;3.10;;;;;;;;;;4958536;28;20203;-95
2023/06/22 12:30:52;;;;;;;4.00;3.05;;;;;;;;;;4974200;28;20702;-95
2023/06/22 12:33:19;;;;;;;4.65;2.70;;;;;;;;;;4978554;28;20623;-96
2023/06/22 12:35:48;;;;;;;3.30;3.00;;;;;;;;;;4979655;28;20222;-96
2023/06/22 12:38:18;;;;;;;3.15;2.85;;;;;;;;;;4982734;28;20226;-96
2023/06/22 12:40:47;;;;;;;4.53;3.00;;;;;;;;;;4970905;28;20231;-96
2023/06/22 12:43:22;;;;;;;4.60;3.00;;;;;;;;;;4947278;28;20239;-96
2023/06/22 12:45:53;;;;;;;3.58;3.20;;;;;;;;;;4947320;29;20203;-96
2023/06/22 12:48:22;;;;;;;8.15;2.90;;;;;;;;;;4949349;29;20240;-96
2023/06/22 12:50:55;;;;;;;4.38;3.60;;;;;;;;;;4961575;28;20250;-96
2023/06/22 12:53:27;;;;;;;5.32;3.63;;;;;;;;;;4964863;28;20203;-96
2023/06/22 12:55:55;;;;;;;6.10;3.50;;;;;;;;;;4956991;28;20262;-95
2023/06/22 12:58:36;;;;;;;4.68;3.13;;;;;;;;;;4959498;28;20214;-96
2023/06/22 13:01:03;;;;;;;4.82;2.90;;;;;;;;;;4959143;28;20314;-96
2023/06/22 13:03:31;;;;;;;4.65;3.17;;;;;;;;;;4958862;28;20206;-96
2023/06/22 13:05:58;;;;;;;6.32;3.10;;;;;;;;;;4960266;28;20218;-95
2023/06/22 13:08:25;;;;;;;3.45;2.80;;;;;;;;;;4964510;28;20203;-95
2023/06/22 13:10:52;;;;;;;3.92;3.10;;;;;;;;;;4973339;28;20222;-95
2023/06/22 13:13:20;;;;;;;3.17;2.88;;;;;;;;;;4958275;28;20258;-93
2023/06/22 13:15:52;;;;;;;3.90;3.00;;;;;;;;;;4948695;28;20251;-94
2023/06/22 13:18:20;;;;;;;3.53;2.92;;;;;;;;;;4956433;28;20246;-95
2023/06/22 13:20:47;;;;;;;3.15;2.85;;;;;;;;;;4955044;28;20228;-93
2023/06/22 13:23:15;;;;;;;7.78;3.33;;;;;;;;;;4941826;29;20207;-93
2023/06/22 13:25:42;;;;;;;5.40;3.30;;;;;;;;;;4941592;28;20204;-94
2023/06/22 13:28:13;;;;;;;4.55;3.20;;;;;;;;;;4940996;29;20696;-94
2023/06/22 13:30:40;;;;;;;4.35;3.10;;;;;;;;;;4940926;28;20200;-92
2023/06/22 13:33:11;;;;;;;4.15;3.03;;;;;;;;;;4942293;29;20216;-94
2023/06/22 13:35:39;;;;;;;3.97;2.92;;;;;;;;;;4960767;29;20258;-96
2023/06/22 13:40:48;;;;;;;6.28;3.75;;;;;;;;;;4965217;28;20265;-94
2023/06/22 13:43:15;;;;;;;15.48;4.47;;;;;;;;;;4962072;28;20206;-94
2023/06/22 13:45:43;;;;;;;8.70;3.30;;;;;;;;;;4963241;28;20200;-93
2023/06/22 13:48:11;;;;;;;3.40;3.10;;;;;;;;;;4955188;29;20207;-94
2023/06/22 13:50:38;;;;;;;4.60;3.05;;;;;;;;;;4961323;28;20218;-92
2023/06/22 13:53:06;;;;;;;9.85;3.65;;;;;;;;;;4962659;28;20282;-92
2023/06/22 13:55:33;;;;;;;4.03;2.70;;;;;;;;;;4954804;28;20234;-94
2023/06/22 13:58:00;;;;;;;4.38;2.83;;;;;;;;;;4957987;28;20226;-93
2023/06/22 14:00:27;;;;;;;3.08;2.78;;;;;;;;;;4955577;28;20327;-93
2023/06/22 14:02:54;;;;;;;3.92;2.70;;;;;;;;;;4953235;29;20206;-95
2023/06/22 14:05:23;;;;;;;5.32;2.90;;;;;;;;;;4955198;28;20298;-94
2023/06/22 14:07:50;;;;;;;3.53;2.90;;;;;;;;;;4956088;28;20299;-95
2023/06/22 14:10:17;;;;;;;3.00;2.70;;;;;;;;;;4951036;28;20296;-94
2023/06/22 14:12:44;;;;;;;3.92;2.80;;;;;;;;;;4950008;28;20286;-92
2023/06/22 14:15:12;;;;;;;3.83;3.00;;;;;;;;;;4965679;28;20237;-94
2023/06/22 14:17:39;;;;;;;2.88;2.30;;;;;;;;;;4955776;28;20294;-94
2023/06/22 14:20:08;;;;;;;4.25;2.72;;;;;;;;;;4938295;28;20448;-92
2023/06/22 14:22:36;;;;;;;2.95;2.63;;;;;;;;;;4955754;28;20206;-92
2023/06/22 14:25:03;;;;;;;2.92;2.60;;;;;;;;;;4956962;29;20215;-93
2023/06/22 14:27:31;;;;;;;8.02;3.03;;;;;;;;;;4956986;28;20282;-94
2023/06/22 14:29:58;;;;;;;2.72;2.50;;;;;;;;;;4938508;29;20288;-93
2023/06/22 14:32:25;;;;;;;3.63;2.67;;;;;;;;;;4949994;29;20682;-96
2023/06/22 14:34:52;;;;;;;5.18;2.47;;;;;;;;;;4946641;28;20203;-95
2023/06/22 14:37:20;;;;;;;4.07;2.75;;;;;;;;;;4959321;28;20277;-95
2023/06/22 14:39:48;;;;;;;6.03;2.50;;;;;;;;;;4960779;29;20635;-93
2023/06/22 14:42:15;;;;;;;4.90;2.70;;;;;;;;;;4960627;29;20237;-96
2023/06/22 14:44:43;;;;;;;16.02;3.85;;;;;;;;;;4961063;28;20230;-95
2023/06/22 14:47:10;;;;;;;4.53;2.60;;;;;;;;;;4961056;29;20263;-95
2023/06/22 14:49:37;;;;;;;3.08;2.20;;;;;;;;;;4960908;28;20230;-96